Latest Coastal Weather Observations for Esperance

IDW60701

Issued at 7:55 am WST Sunday 23 November 2014 (issued every 10 minutes, with the page automatically refreshed every 10 minutes)

About coastal observations | Map of coastal stations | Coastal observations for WA | Marine services | Other Formats
Station Details ID: 009789 Name: ESPERANCE Lat: -33.83 Lon: 121.89 Height: 25.0 m
Data from the previous 72 hours. | See also: Recent months at Esperance
Date/Time
WST
Temp

°C
Wind Pressure Rain
since 9am
mm
Weather Cloud Vis
km
Sea
Height
m
Swell
Dir
 
Speed
knots
Gust
knots
hPa Trend Height
m
Period
s
Dir
23/07:30am 17.9 WNW 13 19 1013.7 - 0.0 - Mostly clear 10 - - - -
23/06:30am 16.5 NW 10 16 1013.3 - 0.0 - Mostly clear 10 - - - -
23/06:00am 15.9 NW 10 14 1013.2 R 0.0 Haze Partly cloudy 20 - - - -
23/05:30am 15.3 NNW 6 9 1012.8 - 0.0 - Partly cloudy 5 - - - -
23/05:00am 15.0 NW 8 10 1012.6 - 0.0 - Cloudy 5 - - - -
23/04:30am 14.7 NNW 7 9 1012.3 - 0.0 - Partly cloudy 6 - - - -
23/04:00am 14.6 NW 6 8 1012.0 - 0.0 - Partly cloudy 5 - - - -
23/03:46am 14.8 SW 6 10 1012.1 - 0.0 - Cloudy 7 - - - -
23/03:30am 15.6 WNW 6 9 1011.8 - 0.0 - Cloudy 10 - - - -
23/03:00am 15.6 NNW 7 9 1011.6 R 0.0 - Cloudy 10 - - - -
23/02:30am 15.7 NW 6 7 1011.6 - 0.0 - Partly cloudy 10 - - - -
23/02:00am 16.0 WSW 5 7 1011.8 - 0.0 - Partly cloudy 10 - - - -
23/01:30am 15.9 W 3 5 1011.7 - 0.0 - Partly cloudy 10 - - - -
23/01:00am 16.0 SW 3 5 1011.8 - 0.0 - Partly cloudy 10 - - - -
23/12:30am 16.1 SW 3 6 1011.8 - 0.0 - Cloudy 10 - - - -
23/12:00am 16.1 SW 4 7 1012.0 R 0.0 - Cloudy 10 - - - -
 
Date/Time
WST
Temp

°C
Wind Pressure Rain
since 9am
mm
Weather Cloud Vis
km
Sea
Height
m
Swell
Dir
 
Speed
knots
Gust
knots
hPa Trend Height
m
Period
s
Dir
22/11:30pm 16.0 SSW 6 8 1012.1 - 0.0 - Cloudy 10 - - - -
22/11:00pm 15.9 SW 5 7 1012.2 - 0.0 - Cloudy 10 - - - -
22/10:30pm 15.8 SW 4 5 1012.1 - 0.0 - Cloudy 10 - - - -
22/10:00pm 15.5 SW 3 5 1012.0 - 0.0 - Partly cloudy 10 - - - -
22/09:30pm 15.0 SSW 4 6 1012.2 - 0.0 - Partly cloudy 10 - - - -
22/09:00pm 15.1 SSW 5 5 1012.2 F 0.0 - Mostly clear 10 - - - -
22/08:30pm 15.5 SSW 6 7 1012.3 - 0.0 - - 10 - - - -
22/08:00pm 15.9 SSW 5 7 1012.0 - 0.0 - Mostly clear 10 - - - -
22/07:30pm 16.3 S 5 8 1011.8 - 0.0 - Mostly clear 10 - - - -
22/07:00pm 16.4 S 6 7 1011.8 - 0.0 - Mostly clear 10 - - - -
22/06:30pm 16.8 S 7 9 1011.6 - 0.0 - Mostly clear 10 - - - -
22/06:00pm 17.1 S 7 10 1011.4 F 0.0 Haze Partly cloudy 25 - - - -
22/05:30pm 17.3 S 7 11 1011.2 - 0.0 - Mostly clear 10 - - - -
22/05:00pm 17.0 S 8 12 1011.0 - 0.0 - Mostly clear 10 - - - -
22/04:30pm 17.3 S 9 13 1011.0 - 0.0 - Mostly clear 10 - - - -
22/04:00pm 17.7 S 10 14 1010.9 - 0.0 - Mostly clear 10 - - - -
22/03:30pm 17.2 S 10 15 1011.1 - 0.0 - Mostly clear 10 - - - -
22/03:00pm 18.4 SSW 10 16 1011.2 R 0.0 Haze Partly cloudy 25 - - - -
22/02:30pm 18.5 S 11 15 1011.3 - 0.0 - Mostly clear 10 - - - -
22/02:00pm 18.8 S 12 18 1011.3 - 0.0 - Mostly clear 10 - - - -
22/01:30pm 19.7 S 11 17 1011.4 - 0.0 - Mostly clear 10 - - - -
22/01:00pm 20.1 SSW 11 20 1011.4 - 0.0 - Mostly clear 10 - - - -
22/12:30pm 21.1 SW 10 16 1011.5 - 0.0 - Mostly clear 10 - - - -
22/12:00pm 19.8 SW 11 15 1011.8 R 0.0 Fine Mostly cloudy 30 - - - -
22/11:30am 20.1 SW 10 16 1012.0 - 0.0 - Mostly clear 10 - - - -
22/11:00am 20.3 SW 11 17 1012.1 - 0.0 - Mostly clear 10 - - - -
22/10:30am 20.6 WSW 9 15 1012.3 - 0.0 - Mostly clear 10 - - - -
22/10:00am 19.6 SW 9 13 1012.4 - 0.0 - Mostly clear 10 - - - -
22/09:30am 20.5 WSW 11 18 1012.4 - 0.0 - Mostly clear 10 - - - -
22/09:00am 18.9 WSW 12 17 1012.4 R 0.4 Haze Mostly cloudy 25 - - - -
22/08:30am 19.4 W 10 15 1012.3 - 0.4 - Mostly clear 10 - - - -
22/08:00am 18.1 W 11 17 1012.3 - 0.4 - Mostly clear 10 - - - -
22/07:30am 17.4 WNW 9 13 1012.1 - 0.4 - Mostly clear 10 - - - -
22/07:00am 16.7 NW 11 14 1012.0 - 0.4 - Mostly clear 10 - - - -
22/06:30am 16.4 NW 9 12 1011.7 - 0.4 - Mostly clear 10 - - - -
22/06:00am 15.5 WNW 6 7 1011.5 R 0.4 Recent precip. Mostly cloudy 20 - - - -
22/05:31am 15.1 NW 7 8 1011.3 - 0.4 - Partly cloudy 10 - - - -
22/05:30am 15.1 NW 7 8 1011.3 - 0.4 - Partly cloudy 10 - - - -
22/05:17am 14.9 NW 7 8 1011.2 - 0.4 - Partly cloudy 10 - - - -
22/05:15am 14.9 NW 6 8 1011.1 - 0.4 - Partly cloudy 10 - - - -
22/05:00am 14.8 NW 5 7 1010.9 - 0.4 - Partly cloudy 10 - - - -
22/04:49am 14.9 WNW 5 7 1010.8 - 0.4 - Partly cloudy 10 - - - -
22/04:35am 14.8 W 6 9 1010.7 - 0.4 - Partly cloudy 6 - - - -
22/04:30am 14.8 WNW 6 9 1010.7 - 0.4 - Partly cloudy 5 - - - -
22/04:13am 15.2 WNW 7 9 1010.5 - 0.0 - Partly cloudy 7 - - - -
22/04:00am 15.4 WNW 6 9 1010.3 - 0.0 - Partly cloudy 10 - - - -
22/03:59am 15.4 WNW 6 9 1010.3 - 0.0 - Partly cloudy 10 - - - -
22/03:45am 15.4 WNW 5 7 1010.1 - 0.0 - Partly cloudy 7 - - - -
22/03:30am 15.7 W 5 7 1010.0 - 0.0 - Partly cloudy 10 - - - -
22/03:20am 16.0 WSW 6 10 1010.0 - 0.0 - Partly cloudy 7 - - - -
22/03:00am 16.4 W 5 8 1009.9 R 0.0 - Cloudy 10 - - - -
22/02:30am 16.6 SW 5 7 1009.8 - 0.0 - Partly cloudy 10 - - - -
22/02:00am 16.5 SW 5 7 1009.6 - 0.0 - Partly cloudy 10 - - - -
22/01:30am 16.6 SSW 7 11 1009.7 - 0.0 - Partly cloudy 10 - - - -
22/01:00am 16.6 SSW 6 9 1009.9 - 0.0 - Cloudy 10 - - - -
22/12:30am 16.8 SSW 8 12 1010.1 - 0.0 - Cloudy 10 - - - -
22/12:00am 17.0 SW 6 10 1010.0 S 0.0 - Cloudy 10 - - - -
 
Date/Time
WST
Temp

°C
Wind Pressure Rain
since 9am
mm
Weather Cloud Vis
km
Sea
Height
m
Swell
Dir
 
Speed
knots
Gust
knots
hPa Trend Height
m
Period
s
Dir
21/11:30pm 17.1 SW 7 11 1010.3 - 0.0 - Cloudy 10 - - - -
21/11:00pm 17.1 SSW 8 12 1010.2 - 0.0 - Cloudy 10 - - - -
21/10:30pm 17.1 SSW 7 11 1010.5 - 0.0 - Cloudy 10 - - - -
21/10:00pm 17.1 SSW 6 8 1010.4 - 0.0 - Cloudy 10 - - - -
21/09:30pm 17.2 S 5 7 1010.4 - 0.0 - Cloudy 10 - - - -
21/09:00pm 17.2 S 6 8 1010.5 R 0.0 - Cloudy 10 - - - -
21/08:30pm 17.0 SSW 5 9 1010.6 - 0.0 - Partly cloudy 10 - - - -
21/08:00pm 17.2 S 7 10 1010.4 - 0.0 - Mostly clear 10 - - - -
21/07:30pm 17.4 S 7 9 1010.2 - 0.0 - Mostly clear 10 - - - -
21/07:00pm 17.4 SSE 6 9 1009.7 - 0.0 - Mostly clear 10 - - - -
21/06:30pm 17.5 S 6 8 1009.5 - 0.0 - Mostly clear 10 - - - -
21/06:00pm 17.9 S 8 11 1009.0 R 0.0 Haze Mostly clear 12 - - - -
21/05:30pm 18.3 S 10 13 1008.8 - 0.0 - Mostly clear 10 - - - -
21/05:00pm 18.8 S 8 12 1008.4 - 0.0 - Mostly clear 10 - - - -
21/04:30pm 19.1 S 11 15 1008.4 - 0.0 - Mostly clear 10 - - - -
21/04:00pm 19.5 S 10 16 1008.4 - 0.0 - Mostly clear 10 - - - -
21/03:30pm 20.0 S 10 15 1008.2 - 0.0 - Mostly clear 10 - - - -
21/03:00pm 20.2 SSW 10 15 1008.1 R 0.0 Haze Mostly clear 15 - - - -
21/02:30pm 19.9 S 11 19 1008.3 - 0.0 - Mostly clear 10 - - - -
21/02:00pm 20.9 S 13 21 1008.2 - 0.0 - Mostly clear 10 - - - -
21/01:30pm 20.6 SSW 13 20 1008.2 - 0.0 - Mostly clear 10 - - - -
21/01:00pm 21.0 SSW 13 18 1008.1 - 0.0 - Mostly clear 10 - - - -
21/12:30pm 21.1 S 13 19 1007.8 - 0.0 - Mostly clear 10 - - - -
21/12:00pm 22.3 SSW 13 18 1008.2 R 0.0 Haze Mostly clear 25 - - - -
21/11:30am 22.8 SW 11 17 1008.4 - 0.0 - Mostly clear 10 - - - -
21/11:00am 21.4 WSW 14 19 1008.6 - 0.0 - Mostly clear 10 - - - -
21/10:30am 22.3 W 12 18 1008.8 - 0.0 - Mostly clear 10 - - - -
21/10:00am 20.4 WSW 12 17 1009.1 - 0.0 - Mostly clear 10 - - - -
21/09:30am 21.0 WSW 12 19 1009.2 - 0.0 - Mostly clear 10 - - - -
21/09:00am 21.2 W 10 17 1009.2 R 0.0 Fine Mostly clear 25 - - - -
21/08:30am 20.7 W 11 17 1009.2 - 0.0 - Mostly clear 10 - - - -
21/08:00am 20.1 W 10 15 1009.3 - 0.0 - Mostly clear 10 - - - -
21/07:30am 18.9 WNW 10 13 1009.3 - 0.0 - Mostly clear 10 - - - -
21/07:00am 17.9 WNW 10 14 1009.1 - 0.0 - - 10 - - - -
21/06:30am 17.2 WNW 8 12 1009.0 - 0.0 - - 10 - - - -
21/06:00am 16.5 WNW 8 12 1008.7 R 0.0 Fine Mostly cloudy 25 - - - -
21/05:30am 16.5 WNW 9 12 1008.5 - 0.0 - - 10 - - - -
21/05:00am 16.0 WNW 7 9 1008.2 - 0.0 - - 10 - - - -
21/04:30am 16.0 NW 8 11 1007.9 - 0.0 - - 10 - - - -
21/04:00am 16.2 WNW 7 10 1007.7 - 0.0 - - 10 - - - -
21/03:30am 16.5 WNW 6 9 1007.6 - 0.0 - - 10 - - - -
21/03:00am 16.3 NW 6 7 1007.6 R 0.0 - Cloudy 10 - - - -
21/02:30am 16.4 WNW 6 8 1007.7 - 0.0 - - 10 - - - -
21/02:00am 15.8 W 5 5 1007.6 - 0.0 - - 10 - - - -
21/01:30am 15.6 W 5 6 1007.7 - 0.0 - - 10 - - - -
21/01:00am 16.0 W 5 6 1007.7 - 0.0 - - 10 - - - -
21/12:30am 16.7 W 4 6 1007.9 - 0.0 - - 10 - - - -
21/12:00am 16.8 WNW 5 6 1008.0 F 0.0 - Mostly cloudy 10 - - - -
 
Date/Time
WST
Temp

°C
Wind Pressure Rain
since 9am
mm
Weather Cloud Vis
km
Sea
Height
m
Swell
Dir
 
Speed
knots
Gust
knots
hPa Trend Height
m
Period
s
Dir
20/11:30pm 17.5 SW 5 6 1008.4 - 0.0 - - 10 - - - -
20/11:00pm 17.6 WSW 4 6 1008.7 - 0.0 - - 10 - - - -
20/10:30pm 17.9 WSW 5 6 1008.8 - 0.0 - - 10 - - - -
20/10:00pm 18.5 WSW 4 5 1008.7 - 0.0 - - 10 - - - -
20/09:30pm 19.1 CALM 0 0 1008.7 - 0.0 - - 10 - - - -
20/09:00pm 19.7 CALM 0 3 1008.6 F 0.0 - Mostly cloudy 10 - - - -
20/08:30pm 19.5 CALM 0 0 1008.5 - 0.0 - - 10 - - - -
20/08:00pm 20.0 CALM 0 0 1008.4 - 0.0 - - 10 - - - -
20/07:30pm 20.9 CALM 0 0 1008.1 - 0.0 - - 10 - - - -
20/07:00pm 21.1 CALM 0 2 1007.9 - 0.0 - - 10 - - - -
20/06:30pm 21.5 NNE 4 5 1007.6 - 0.0 - - 10 - - - -
20/06:00pm 21.8 NNE 5 7 1007.4 F 0.0 - Mostly clear 10 - - - -
20/05:30pm 21.2 NE 4 5 1007.6 - 0.0 - - 10 - - - -
20/05:00pm 21.6 E 4 6 1007.6 - 0.0 - - 10 - - - -
20/04:30pm 20.9 E 6 8 1007.8 - 0.0 - - 10 - - - -
20/04:00pm 21.2 SE 8 11 1008.3 - 0.0 - - 10 - - - -
20/03:30pm 22.4 S 9 14 1008.7 - 0.0 - - 10 - - - -
20/03:00pm 22.5 S 13 18 1008.9 R 0.0 Fine Partly cloudy 40 - - - -
20/02:30pm 22.0 S 16 23 1008.8 - 0.0 - - 10 - - - -
20/02:00pm 22.8 S 17 24 1008.4 - 0.0 - Partly cloudy 10 - - - -
20/01:30pm 23.3 SSW 12 19 1008.5 - 0.0 - Partly cloudy 10 - - - -
20/01:00pm 23.3 S 12 17 1008.2 - 0.0 - Partly cloudy 10 - - - -
20/12:30pm 26.0 WNW 9 12 1008.3 - 0.0 - Partly cloudy 10 - - - -
20/12:00pm 25.8 NW 17 23 1008.8 F 0.0 Fine Partly cloudy 40 - - - -
20/11:30am 25.8 WNW 13 18 1009.6 - 0.0 - Partly cloudy 10 - - - -
20/11:00am 24.5 NW 13 19 1010.2 - 0.0 - Mostly cloudy 10 - - - -
20/10:30am 24.0 NNW 15 20 1010.8 - 0.0 - Partly cloudy 10 - - - -
20/10:00am 23.1 NNW 13 17 1011.1 - 0.0 - Mostly clear 10 - - - -
20/09:30am 23.0 NNW 12 20 1011.6 - 0.0 - Mostly clear 10 - - - -
20/09:00am 21.7 NNW 10 15 1012.1 F 0.0 Fine Partly cloudy 30 - - - -
20/08:30am 20.6 N 8 11 1012.6 - 0.0 - Partly cloudy 10 - - - -
20/08:00am 19.3 N 9 12 1012.8 - 0.0 - Partly cloudy 10 - - - -

Other Formats:

Comma delimited format used in spreadsheet applications
http://www.bom.gov.au/fwo/IDW60701/IDW60701.94638.axf

JavaScript Object Notation format (JSON) in row-major order
http://www.bom.gov.au/fwo/IDW60701/IDW60701.94638.json